Anatife — FGE8389 — position and weather

sailwx.info

Track history (hours):
 
Tides and Currents Weather Stations Pressure Air Temp Water Temp Dewpoint Dewpoint Depression Visibility Wind Speed Wind Dir Waves Ship Positions

Anatife

Last reported at 2015-May-27 11:33 UTC. Time now 2015-May-27 11:48 UTC.
Position N 47°18' W 002°05'.

Length 41 m; draft 2.3 m.

Type: Tanker. MMSI: 227681520.

Date/timePositionNaut miles runAvg speedWind from/ knotsBaromVisibWave heightAir tempDewpointWater temp
2015-May-27 11:33N 47°18' W 002°05'0 0.0
2015-May-27 10:33N 47°18' W 002°05'0 0.0
2015-May-27 09:26N 47°18' W 002°05'0 0.0
2015-May-27 08:33N 47°18' W 002°05'0 0.0
2015-May-27 07:33N 47°18' W 002°05'0 0.0
2015-May-27 06:32N 47°18' W 002°05'0 0.0
2015-May-27 05:33N 47°18' W 002°05'0 0.0
2015-May-27 04:33N 47°18' W 002°05'  
2015-May-23 06:32N 47°18' W 002°05'0 0.0
2015-May-23 05:34N 47°18' W 002°05'44 1.9
2015-May-22 06:04N 47°21' W 003°09'0 0.4
2015-May-22 05:26N 47°21' W 003°09'4 4.9
2015-May-22 04:32N 47°20' W 003°03'10 9.7
2015-May-22 03:32N 47°17' W 002°49'30 5.9
2015-May-21 22:27N 47°18' W 002°05'0 0.0
2015-May-21 21:34N 47°18' W 002°05'0 0.0
2015-May-21 20:31N 47°18' W 002°05'  
Track history (hours):
 
Tides and Currents Weather Stations Pressure Air Temp Water Temp Dewpoint Dewpoint Depression Visibility Wind Speed Wind Dir Waves Ship Positions

Anatife

Last reported at 2015-May-27 11:33 UTC. Time now 2015-May-27 11:48 UTC.
Position N 47°18' W 002°05'.

Length 41 m; draft 2.3 m.

Type: Tanker. MMSI: 227681520.

Date/timePositionNaut miles runAvg speedWind from/ knotsBaromVisibWave heightAir tempDewpointWater temp
2015-May-27 11:33N 47°18' W 002°05'0 0.0
2015-May-27 10:33N 47°18' W 002°05'0 0.0
2015-May-27 09:26N 47°18' W 002°05'0 0.0
2015-May-27 08:33N 47°18' W 002°05'0 0.0
2015-May-27 07:33N 47°18' W 002°05'0 0.0
2015-May-27 06:32N 47°18' W 002°05'0 0.0
2015-May-27 05:33N 47°18' W 002°05'0 0.0
2015-May-27 04:33N 47°18' W 002°05'  
2015-May-23 06:32N 47°18' W 002°05'0 0.0
2015-May-23 05:34N 47°18' W 002°05'44 1.9
2015-May-22 06:04N 47°21' W 003°09'0 0.4
2015-May-22 05:26N 47°21' W 003°09'4 4.9
2015-May-22 04:32N 47°20' W 003°03'10 9.7
2015-May-22 03:32N 47°17' W 002°49'30 5.9
2015-May-21 22:27N 47°18' W 002°05'0 0.0
2015-May-21 21:34N 47°18' W 002°05'0 0.0
2015-May-21 20:31N 47°18' W 002°05'  

Dump ship's entire track history